sensor_id;sensor_type;location;lat;lon;timestamp;pressure;altitude;pressure_sealevel;temperature;humidity
71457;BME280;59263;48.160;11.752;2023-04-27T00:01:12;95945.06;;;5.75;100.00
71457;BME280;59263;48.160;11.752;2023-04-27T00:03:38;95935.31;;;5.67;100.00
71457;BME280;59263;48.160;11.752;2023-04-27T00:06:03;95933.00;;;5.64;100.00
71457;BME280;59263;48.160;11.752;2023-04-27T00:08:29;95922.97;;;5.48;100.00
71457;BME280;59263;48.160;11.752;2023-04-27T00:10:55;95926.97;;;5.52;100.00
71457;BME280;59263;48.160;11.752;2023-04-27T00:13:20;95917.84;;;5.48;100.00
71457;BME280;59263;48.160;11.752;2023-04-27T00:15:46;95918.56;;;5.50;100.00
71457;BME280;59263;48.160;11.752;2023-04-27T00:18:11;95928.63;;;5.53;100.00
71457;BME280;59263;48.160;11.752;2023-04-27T00:20:36;95917.84;;;5.48;100.00
71457;BME280;59263;48.160;11.752;2023-04-27T00:23:01;95917.16;;;5.46;100.00
71457;BME280;59263;48.160;11.752;2023-04-27T00:25:27;95931.53;;;5.49;100.00
71457;BME280;59263;48.160;11.752;2023-04-27T00:27:52;95924.84;;;5.46;100.00
71457;BME280;59263;48.160;11.752;2023-04-27T00:30:17;95919.13;;;5.43;100.00
71457;BME280;59263;48.160;11.752;2023-04-27T00:32:43;95928.09;;;5.48;100.00
71457;BME280;59263;48.160;11.752;2023-04-27T00:35:08;95916.44;;;5.44;100.00
71457;BME280;59263;48.160;11.752;2023-04-27T00:37:34;95915.81;;;5.41;100.00
71457;BME280;59263;48.160;11.752;2023-04-27T00:40:00;95919.94;;;5.43;100.00
71457;BME280;59263;48.160;11.752;2023-04-27T00:42:25;95905.28;;;5.32;100.00
71457;BME280;59263;48.160;11.752;2023-04-27T00:44:52;95916.16;;;5.36;100.00
71457;BME280;59263;48.160;11.752;2023-04-27T00:47:17;95910.22;;;5.36;100.00
71457;BME280;59263;48.160;11.752;2023-04-27T00:49:43;95914.31;;;5.38;100.00
71457;BME280;59263;48.160;11.752;2023-04-27T00:52:08;95918.31;;;5.42;100.00
71457;BME280;59263;48.160;11.752;2023-04-27T00:54:34;95912.78;;;5.36;100.00
71457;BME280;59263;48.160;11.752;2023-04-27T00:57:00;95914.63;;;5.33;100.00
71457;BME280;59263;48.160;11.752;2023-04-27T00:59:26;95904.00;;;5.27;100.00
71457;BME280;59263;48.160;11.752;2023-04-27T01:01:52;95918.50;;;5.39;100.00
71457;BME280;59263;48.160;11.752;2023-04-27T01:04:19;95920.06;;;5.42;100.00
71457;BME280;59263;48.160;11.752;2023-04-27T01:06:44;95914.81;;;5.43;100.00
71457;BME280;59263;48.160;11.752;2023-04-27T01:09:10;95926.91;;;5.41;100.00
71457;BME280;59263;48.160;11.752;2023-04-27T01:11:35;95925.28;;;5.40;100.00
71457;BME280;59263;48.160;11.752;2023-04-27T01:14:05;95901.72;;;5.22;100.00
71457;BME280;59263;48.160;11.752;2023-04-27T01:16:34;95919.88;;;5.32;100.00
71457;BME280;59263;48.160;11.752;2023-04-27T01:19:00;95928.78;;;5.39;100.00
71457;BME280;59263;48.160;11.752;2023-04-27T01:21:25;95924.47;;;5.40;100.00
71457;BME280;59263;48.160;11.752;2023-04-27T01:23:52;95907.03;;;5.32;100.00
71457;BME280;59263;48.160;11.752;2023-04-27T01:26:17;95925.19;;;5.42;100.00
71457;BME280;59263;48.160;11.752;2023-04-27T01:28:42;95923.66;;;5.39;100.00
71457;BME280;59263;48.160;11.752;2023-04-27T01:31:11;95923.31;;;5.44;100.00
71457;BME280;59263;48.160;11.752;2023-04-27T01:33:37;95902.72;;;5.32;100.00
71457;BME280;59263;48.160;11.752;2023-04-27T01:36:03;95924.59;;;5.38;100.00
71457;BME280;59263;48.160;11.752;2023-04-27T01:38:29;95902.13;;;5.29;100.00
71457;BME280;59263;48.160;11.752;2023-04-27T01:40:54;95927.41;;;5.46;100.00
71457;BME280;59263;48.160;11.752;2023-04-27T01:43:26;95921.56;;;5.44;100.00
71457;BME280;59263;48.160;11.752;2023-04-27T01:45:51;95914.41;;;5.37;100.00
71457;BME280;59263;48.160;11.752;2023-04-27T01:48:16;95926.91;;;5.41;100.00
71457;BME280;59263;48.160;11.752;2023-04-27T01:50:41;95926.81;;;5.43;100.00
71457;BME280;59263;48.160;11.752;2023-04-27T01:53:07;95936.75;;;5.47;100.00
71457;BME280;59263;48.160;11.752;2023-04-27T01:55:32;95931.63;;;5.47;100.00
71457;BME280;59263;48.160;11.752;2023-04-27T01:57:57;95928.78;;;5.39;100.00
71457;BME280;59263;48.160;11.752;2023-04-27T02:00:23;95945.16;;;5.49;100.00
71457;BME280;59263;48.160;11.752;2023-04-27T02:02:48;95951.00;;;5.51;100.00
71457;BME280;59263;48.160;11.752;2023-04-27T02:05:17;95948.34;;;5.53;100.00
71457;BME280;59263;48.160;11.752;2023-04-27T02:07:43;95943.09;;;5.54;100.00
71457;BME280;59263;48.160;11.752;2023-04-27T02:10:08;95938.88;;;5.53;100.00
71457;BME280;59263;48.160;11.752;2023-04-27T02:12:34;95926.25;;;5.50;100.00
71457;BME280;59263;48.160;11.752;2023-04-27T02:14:59;95933.03;;;5.51;100.00
71457;BME280;59263;48.160;11.752;2023-04-27T02:17:24;95935.16;;;5.57;100.00
71457;BME280;59263;48.160;11.752;2023-04-27T02:19:50;95922.28;;;5.46;100.00
71457;BME280;59263;48.160;11.752;2023-04-27T02:22:15;95940.03;;;5.49;100.00
71457;BME280;59263;48.160;11.752;2023-04-27T02:24:41;95923.22;;;5.45;100.00
71457;BME280;59263;48.160;11.752;2023-04-27T02:27:06;95943.81;;;5.56;100.00
71457;BME280;59263;48.160;11.752;2023-04-27T02:29:32;95935.81;;;5.48;100.00
71457;BME280;59263;48.160;11.752;2023-04-27T02:31:57;95942.59;;;5.49;100.00
71457;BME280;59263;48.160;11.752;2023-04-27T02:34:22;95928.66;;;5.41;100.00
71457;BME280;59263;48.160;11.752;2023-04-27T02:36:47;95945.59;;;5.43;100.00
71457;BME280;59263;48.160;11.752;2023-04-27T02:39:13;95950.94;;;5.40;100.00
71457;BME280;59263;48.160;11.752;2023-04-27T02:41:38;95951.38;;;5.34;100.00
71457;BME280;59263;48.160;11.752;2023-04-27T02:44:03;95951.19;;;5.24;100.00
71457;BME280;59263;48.160;11.752;2023-04-27T02:46:29;95944.53;;;5.22;100.00
71457;BME280;59263;48.160;11.752;2023-04-27T02:48:54;95943.31;;;5.15;100.00
71457;BME280;59263;48.160;11.752;2023-04-27T02:51:20;95956.94;;;5.15;100.00
71457;BME280;59263;48.160;11.752;2023-04-27T02:53:46;95941.81;;;4.99;100.00
71457;BME280;59263;48.160;11.752;2023-04-27T02:56:11;95941.00;;;4.99;100.00
71457;BME280;59263;48.160;11.752;2023-04-27T02:58:36;95940.19;;;4.98;100.00
71457;BME280;59263;48.160;11.752;2023-04-27T03:01:02;95943.97;;;4.93;100.00
71457;BME280;59263;48.160;11.752;2023-04-27T03:03:27;95967.56;;;4.98;100.00
71457;BME280;59263;48.160;11.752;2023-04-27T03:05:52;95937.75;;;4.84;100.00
71457;BME280;59263;48.160;11.752;2023-04-27T03:08:17;95955.78;;;4.95;100.00
71457;BME280;59263;48.160;11.752;2023-04-27T03:10:43;95958.03;;;4.87;100.00
71457;BME280;59263;48.160;11.752;2023-04-27T03:13:08;95950.28;;;4.76;100.00
71457;BME280;59263;48.160;11.752;2023-04-27T03:15:34;95965.44;;;4.79;100.00
71457;BME280;59263;48.160;11.752;2023-04-27T03:17:59;95948.41;;;4.52;100.00
71457;BME280;59263;48.160;11.752;2023-04-27T03:20:24;95942.50;;;4.39;100.00
71457;BME280;59263;48.160;11.752;2023-04-27T03:22:50;95953.44;;;4.41;100.00
71457;BME280;59263;48.160;11.752;2023-04-27T03:25:15;95966.97;;;4.43;100.00
71457;BME280;59263;48.160;11.752;2023-04-27T03:27:41;95966.25;;;4.41;100.00
71457;BME280;59263;48.160;11.752;2023-04-27T03:30:08;95969.53;;;4.43;100.00
71457;BME280;59263;48.160;11.752;2023-04-27T03:32:33;95965.03;;;4.34;100.00
71457;BME280;59263;48.160;11.752;2023-04-27T03:34:59;95977.53;;;4.39;100.00
71457;BME280;59263;48.160;11.752;2023-04-27T03:37:24;95974.97;;;4.39;100.00
71457;BME280;59263;48.160;11.752;2023-04-27T03:39:49;95976.38;;;4.30;100.00
71457;BME280;59263;48.160;11.752;2023-04-27T03:42:15;95951.97;;;4.11;100.00
71457;BME280;59263;48.160;11.752;2023-04-27T03:44:40;95962.44;;;4.21;100.00
71457;BME280;59263;48.160;11.752;2023-04-27T03:47:06;95983.66;;;4.36;100.00
71457;BME280;59263;48.160;11.752;2023-04-27T03:49:33;95979.06;;;4.41;100.00
71457;BME280;59263;48.160;11.752;2023-04-27T03:51:59;95959.06;;;4.21;100.00
71457;BME280;59263;48.160;11.752;2023-04-27T03:54:24;95981.31;;;4.33;100.00
71457;BME280;59263;48.160;11.752;2023-04-27T03:56:49;95976.91;;;4.35;100.00
71457;BME280;59263;48.160;11.752;2023-04-27T03:59:15;95974.75;;;4.29;100.00
71457;BME280;59263;48.160;11.752;2023-04-27T04:01:40;95971.16;;;4.31;100.00
71457;BME280;59263;48.160;11.752;2023-04-27T04:04:05;95957.75;;;4.28;100.00
71457;BME280;59263;48.160;11.752;2023-04-27T04:06:31;95981.94;;;4.49;100.00
71457;BME280;59263;48.160;11.752;2023-04-27T04:08:58;95973.72;;;4.44;100.00
71457;BME280;59263;48.160;11.752;2023-04-27T04:11:25;95987.59;;;4.42;100.00
71457;BME280;59263;48.160;11.752;2023-04-27T04:13:51;95977.09;;;4.32;100.00
71457;BME280;59263;48.160;11.752;2023-04-27T04:16:16;95978.31;;;4.26;100.00
71457;BME280;59263;48.160;11.752;2023-04-27T04:18:41;95987.88;;;4.37;100.00
71457;BME280;59263;48.160;11.752;2023-04-27T04:21:08;96004.59;;;4.55;100.00
71457;BME280;59263;48.160;11.752;2023-04-27T04:23:34;95996.00;;;4.56;100.00
71457;BME280;59263;48.160;11.752;2023-04-27T04:26:00;96007.47;;;4.64;100.00
71457;BME280;59263;48.160;11.752;2023-04-27T04:28:26;96012.19;;;4.70;100.00
71457;BME280;59263;48.160;11.752;2023-04-27T04:30:51;96008.09;;;4.80;100.00
71457;BME280;59263;48.160;11.752;2023-04-27T04:33:16;95997.22;;;4.76;100.00
71457;BME280;59263;48.160;11.752;2023-04-27T04:35:42;96024.69;;;4.87;100.00
71457;BME280;59263;48.160;11.752;2023-04-27T04:38:08;96021.94;;;4.90;100.00
71457;BME280;59263;48.160;11.752;2023-04-27T04:40:34;96032.69;;;4.95;100.00
71457;BME280;59263;48.160;11.752;2023-04-27T04:43:00;96022.44;;;4.95;100.00
71457;BME280;59263;48.160;11.752;2023-04-27T04:45:25;96023.53;;;5.04;100.00
71457;BME280;59263;48.160;11.752;2023-04-27T04:47:51;96026.53;;;5.10;100.00
71457;BME280;59263;48.160;11.752;2023-04-27T04:50:18;96031.25;;;5.17;100.00
71457;BME280;59263;48.160;11.752;2023-04-27T04:52:44;96029.38;;;5.19;100.00
71457;BME280;59263;48.160;11.752;2023-04-27T04:55:09;96039.97;;;5.27;100.00
71457;BME280;59263;48.160;11.752;2023-04-27T04:57:35;95991.47;;;4.98;100.00
71457;BME280;59263;48.160;11.752;2023-04-27T05:00:00;96029.25;;;5.33;100.00
71457;BME280;59263;48.160;11.752;2023-04-27T05:02:26;96015.72;;;5.31;100.00
71457;BME280;59263;48.160;11.752;2023-04-27T05:04:51;96029.84;;;5.49;100.00
71457;BME280;59263;48.160;11.752;2023-04-27T05:07:17;95987.50;;;5.31;100.00
71457;BME280;59263;48.160;11.752;2023-04-27T05:09:42;96033.19;;;5.63;100.00
71457;BME280;59263;48.160;11.752;2023-04-27T05:12:08;96032.56;;;5.72;100.00
71457;BME280;59263;48.160;11.752;2023-04-27T05:14:33;96042.38;;;5.78;100.00
71457;BME280;59263;48.160;11.752;2023-04-27T05:16:59;96043.72;;;5.83;100.00
71457;BME280;59263;48.160;11.752;2023-04-27T05:19:27;96022.06;;;5.75;100.00
71457;BME280;59263;48.160;11.752;2023-04-27T05:21:53;96038.03;;;5.91;100.00
71457;BME280;59263;48.160;11.752;2023-04-27T05:24:18;96045.56;;;5.94;100.00
71457;BME280;59263;48.160;11.752;2023-04-27T05:26:43;96019.97;;;5.93;100.00
71457;BME280;59263;48.160;11.752;2023-04-27T05:29:09;95996.66;;;5.83;100.00
71457;BME280;59263;48.160;11.752;2023-04-27T05:31:34;96009.47;;;5.96;100.00
71457;BME280;59263;48.160;11.752;2023-04-27T05:33:59;96013.38;;;6.01;100.00
71457;BME280;59263;48.160;11.752;2023-04-27T05:36:25;96013.19;;;6.16;100.00
71457;BME280;59263;48.160;11.752;2023-04-27T05:38:53;95993.78;;;6.12;100.00
71457;BME280;59263;48.160;11.752;2023-04-27T05:41:18;96009.28;;;6.34;100.00
71457;BME280;59263;48.160;11.752;2023-04-27T05:43:43;96015.16;;;6.47;100.00
71457;BME280;59263;48.160;11.752;2023-04-27T05:46:12;96020.28;;;6.47;100.00
71457;BME280;59263;48.160;11.752;2023-04-27T05:48:38;95997.13;;;6.36;100.00
71457;BME280;59263;48.160;11.752;2023-04-27T05:51:03;95971.88;;;6.30;100.00
71457;BME280;59263;48.160;11.752;2023-04-27T05:53:29;96025.00;;;6.65;100.00
71457;BME280;59263;48.160;11.752;2023-04-27T05:55:56;96039.75;;;6.85;100.00
71457;BME280;59263;48.160;11.752;2023-04-27T05:58:26;96031.13;;;6.86;100.00
71457;BME280;59263;48.160;11.752;2023-04-27T06:00:53;95987.25;;;6.65;100.00
71457;BME280;59263;48.160;11.752;2023-04-27T06:03:31;96020.38;;;6.92;100.00
71457;BME280;59263;48.160;11.752;2023-04-27T06:05:58;96044.84;;;7.20;100.00
71457;BME280;59263;48.160;11.752;2023-04-27T06:08:24;95992.06;;;6.92;100.00
71457;BME280;59263;48.160;11.752;2023-04-27T06:10:57;95999.69;;;7.05;100.00
71457;BME280;59263;48.160;11.752;2023-04-27T06:13:29;96034.06;;;7.38;100.00
71457;BME280;59263;48.160;11.752;2023-04-27T06:15:55;95989.72;;;7.12;100.00
71457;BME280;59263;48.160;11.752;2023-04-27T06:18:20;96022.47;;;7.43;100.00
71457;BME280;59263;48.160;11.752;2023-04-27T06:20:56;96041.28;;;7.66;100.00
71457;BME280;59263;48.160;11.752;2023-04-27T06:23:28;95977.44;;;7.38;100.00
71457;BME280;59263;48.160;11.752;2023-04-27T06:25:53;95987.69;;;7.49;100.00
71457;BME280;59263;48.160;11.752;2023-04-27T06:28:19;96004.19;;;7.69;100.00
71457;BME280;59263;48.160;11.752;2023-04-27T06:30:47;96024.53;;;7.83;100.00
71457;BME280;59263;48.160;11.752;2023-04-27T06:33:14;95991.75;;;7.74;100.00
71457;BME280;59263;48.160;11.752;2023-04-27T06:35:40;95978.44;;;7.69;100.00
71457;BME280;59263;48.160;11.752;2023-04-27T06:38:16;96001.88;;;7.98;100.00
71457;BME280;59263;48.160;11.752;2023-04-27T06:48:38;96021.22;;;8.57;100.00
71457;BME280;59263;48.160;11.752;2023-04-27T06:51:07;96021.22;;;8.57;100.00
71457;BME280;59263;48.160;11.752;2023-04-27T06:53:35;95980.03;;;8.34;100.00
71457;BME280;59263;48.160;11.752;2023-04-27T06:56:10;96020.47;;;8.66;100.00
71457;BME280;59263;48.160;11.752;2023-04-27T06:58:43;96024.34;;;8.81;100.00
71457;BME280;59263;48.160;11.752;2023-04-27T07:01:20;95985.31;;;8.65;100.00
71457;BME280;59263;48.160;11.752;2023-04-27T07:03:52;95982.19;;;8.71;100.00
71457;BME280;59263;48.160;11.752;2023-04-27T07:06:20;96004.94;;;9.08;100.00
71457;BME280;59263;48.160;11.752;2023-04-27T07:08:58;96018.28;;;9.13;100.00
71457;BME280;59263;48.160;11.752;2023-04-27T07:11:24;96022.16;;;9.28;100.00
71457;BME280;59263;48.160;11.752;2023-04-27T07:13:52;96000.38;;;9.21;100.00
71457;BME280;59263;48.160;11.752;2023-04-27T07:16:21;96032.59;;;9.67;100.00
71457;BME280;59263;48.160;11.752;2023-04-27T07:18:46;95970.56;;;9.48;100.00
71457;BME280;59263;48.160;11.752;2023-04-27T07:21:12;96018.22;;;9.93;100.00
71457;BME280;59263;48.160;11.752;2023-04-27T07:23:38;95985.72;;;9.91;100.00
71457;BME280;59263;48.160;11.752;2023-04-27T07:26:05;96018.13;;;10.14;100.00
71457;BME280;59263;48.160;11.752;2023-04-27T07:28:31;96014.75;;;10.33;100.00
71457;BME280;59263;48.160;11.752;2023-04-27T07:30:57;96004.00;;;10.28;100.00
71457;BME280;59263;48.160;11.752;2023-04-27T07:33:22;95997.59;;;10.32;100.00
71457;BME280;59263;48.160;11.752;2023-04-27T07:35:48;95992.69;;;10.29;100.00
71457;BME280;59263;48.160;11.752;2023-04-27T07:38:17;96024.38;;;10.60;100.00
71457;BME280;59263;48.160;11.752;2023-04-27T07:40:43;95988.63;;;10.36;100.00
71457;BME280;59263;48.160;11.752;2023-04-27T07:43:17;95997.63;;;10.42;100.00
71457;BME280;59263;48.160;11.752;2023-04-27T07:45:43;96022.88;;;10.68;100.00
71457;BME280;59263;48.160;11.752;2023-04-27T07:48:10;96013.44;;;10.86;100.00
71457;BME280;59263;48.160;11.752;2023-04-27T07:50:35;95982.28;;;10.78;100.00
71457;BME280;59263;48.160;11.752;2023-04-27T07:53:01;95990.59;;;10.81;100.00
71457;BME280;59263;48.160;11.752;2023-04-27T07:55:35;96036.41;;;11.18;100.00
71457;BME280;59263;48.160;11.752;2023-04-27T07:58:03;96007.81;;;11.10;100.00
71457;BME280;59263;48.160;11.752;2023-04-27T08:00:29;95974.59;;;10.96;100.00
71457;BME280;59263;48.160;11.752;2023-04-27T08:10:55;95997.88;;;11.43;100.00
71457;BME280;59263;48.160;11.752;2023-04-27T08:13:21;96002.47;;;11.49;100.00
71457;BME280;59263;48.160;11.752;2023-04-27T08:15:49;96032.53;;;11.97;100.00
71457;BME280;59263;48.160;11.752;2023-04-27T08:18:15;95986.00;;;11.68;100.00
71457;BME280;59263;48.160;11.752;2023-04-27T08:23:36;95980.06;;;12.03;100.00
71457;BME280;59263;48.160;11.752;2023-04-27T08:26:17;95964.63;;;12.01;100.00
71457;BME280;59263;48.160;11.752;2023-04-27T08:28:54;95988.28;;;12.34;100.00
71457;BME280;59263;48.160;11.752;2023-04-27T08:31:25;95999.63;;;12.51;100.00
71457;BME280;59263;48.160;11.752;2023-04-27T08:33:53;95966.41;;;12.37;100.00
71457;BME280;59263;48.160;11.752;2023-04-27T08:36:22;95982.25;;;12.51;100.00
71457;BME280;59263;48.160;11.752;2023-04-27T08:38:52;96035.50;;;12.73;100.00
71457;BME280;59263;48.160;11.752;2023-04-27T08:41:41;95994.13;;;12.54;100.00
71457;BME280;59263;48.160;11.752;2023-04-27T08:44:15;96049.97;;;13.02;100.00
71457;BME280;59263;48.160;11.752;2023-04-27T08:46:41;96028.09;;;12.87;100.00
71457;BME280;59263;48.160;11.752;2023-04-27T08:49:14;95995.16;;;12.61;100.00
71457;BME280;59263;48.160;11.752;2023-04-27T08:51:42;96005.59;;;12.69;100.00
71457;BME280;59263;48.160;11.752;2023-04-27T09:09:44;96030.19;;;13.61;100.00
71457;BME280;59263;48.160;11.752;2023-04-27T09:12:20;95969.16;;;13.39;100.00
71457;BME280;59263;48.160;11.752;2023-04-27T09:15:05;95995.75;;;13.75;100.00
71457;BME280;59263;48.160;11.752;2023-04-27T09:21:00;95984.69;;;13.65;100.00
71457;BME280;59263;48.160;11.752;2023-04-27T09:23:35;96004.59;;;13.91;100.00
71457;BME280;59263;48.160;11.752;2023-04-27T09:26:17;95973.19;;;13.84;100.00
71457;BME280;59263;48.160;11.752;2023-04-27T09:28:55;95973.72;;;14.04;100.00
71457;BME280;59263;48.160;11.752;2023-04-27T09:31:30;95958.91;;;13.96;100.00
71457;BME280;59263;48.160;11.752;2023-04-27T09:36:49;96012.63;;;14.38;100.00
71457;BME280;59263;48.160;11.752;2023-04-27T09:39:21;95992.97;;;14.36;100.00
71457;BME280;59263;48.160;11.752;2023-04-27T09:41:51;95950.31;;;14.12;100.00
71457;BME280;59263;48.160;11.752;2023-04-27T09:44:19;95957.78;;;14.23;100.00
71457;BME280;59263;48.160;11.752;2023-04-27T09:46:47;95982.53;;;14.36;100.00
71457;BME280;59263;48.160;11.752;2023-04-27T09:49:25;95957.47;;;14.26;100.00
71457;BME280;59263;48.160;11.752;2023-04-27T09:52:37;95971.19;;;14.61;100.00
71457;BME280;59263;48.160;11.752;2023-04-27T09:54:46;96005.66;;;14.96;93.62
71457;BME280;59263;48.160;11.752;2023-04-27T09:57:59;96004.94;;;15.18;91.68
71457;BME280;59263;48.160;11.752;2023-04-27T10:09:27;95928.78;;;14.92;84.03
71457;BME280;59263;48.160;11.752;2023-04-27T10:14:55;95980.69;;;15.57;74.83
71457;BME280;59263;48.160;11.752;2023-04-27T10:17:24;95973.69;;;15.58;77.00
71457;BME280;59263;48.160;11.752;2023-04-27T10:20:00;95923.28;;;15.26;79.19
71457;BME280;59263;48.160;11.752;2023-04-27T10:22:45;95939.38;;;15.38;69.53
71457;BME280;59263;48.160;11.752;2023-04-27T10:25:37;95909.41;;;15.34;68.83
71457;BME280;59263;48.160;11.752;2023-04-27T10:28:03;95927.41;;;15.12;73.32
71457;BME280;59263;48.160;11.752;2023-04-27T10:30:36;95952.16;;;15.56;78.83
71457;BME280;59263;48.160;11.752;2023-04-27T10:33:06;95970.91;;;15.59;75.06
71457;BME280;59263;48.160;11.752;2023-04-27T10:35:35;95968.22;;;15.84;67.44
71457;BME280;59263;48.160;11.752;2023-04-27T10:38:07;95969.28;;;15.58;70.73
71457;BME280;59263;48.160;11.752;2023-04-27T10:40:34;95948.41;;;15.19;70.47
71457;BME280;59263;48.160;11.752;2023-04-27T10:43:16;95967.63;;;15.18;74.24
71457;BME280;59263;48.160;11.752;2023-04-27T10:45:44;95965.44;;;15.38;68.53
71457;BME280;59263;48.160;11.752;2023-04-27T10:48:13;95964.41;;;15.55;71.77
71457;BME280;59263;48.160;11.752;2023-04-27T10:50:40;95959.19;;;15.55;73.71
71457;BME280;59263;48.160;11.752;2023-04-27T10:53:06;95956.88;;;15.60;72.46
71457;BME280;59263;48.160;11.752;2023-04-27T10:55:33;95956.88;;;15.60;71.28
71457;BME280;59263;48.160;11.752;2023-04-27T10:58:00;95959.84;;;15.49;73.10
71457;BME280;59263;48.160;11.752;2023-04-27T11:00:52;95958.25;;;15.48;68.22
71457;BME280;59263;48.160;11.752;2023-04-27T11:03:34;95895.78;;;15.15;66.59
71457;BME280;59263;48.160;11.752;2023-04-27T11:06:07;95928.00;;;15.31;67.28
71457;BME280;59263;48.160;11.752;2023-04-27T11:08:55;95956.88;;;15.60;66.86
71457;BME280;59263;48.160;11.752;2023-04-27T11:11:23;95894.78;;;15.24;69.41
71457;BME280;59263;48.160;11.752;2023-04-27T11:13:55;95923.09;;;15.36;67.49
71457;BME280;59263;48.160;11.752;2023-04-27T11:16:23;95911.94;;;15.50;73.26
71457;BME280;59263;48.160;11.752;2023-04-27T11:18:56;95909.44;;;15.57;59.17
71457;BME280;59263;48.160;11.752;2023-04-27T11:21:41;95962.06;;;15.29;65.83
71457;BME280;59263;48.160;11.752;2023-04-27T11:24:07;95971.94;;;15.42;63.53
71457;BME280;59263;48.160;11.752;2023-04-27T11:26:34;95956.88;;;15.60;65.21
71457;BME280;59263;48.160;11.752;2023-04-27T11:31:49;95903.19;;;15.35;65.93
71457;BME280;59263;48.160;11.752;2023-04-27T11:34:24;95930.31;;;15.57;69.82
71457;BME280;59263;48.160;11.752;2023-04-27T11:37:01;95937.09;;;15.74;69.62
71457;BME280;59263;48.160;11.752;2023-04-27T11:39:37;95946.63;;;15.90;60.95
71457;BME280;59263;48.160;11.752;2023-04-27T11:42:27;95915.75;;;15.70;63.71
71457;BME280;59263;48.160;11.752;2023-04-27T11:44:55;95945.53;;;16.07;71.58
71457;BME280;59263;48.160;11.752;2023-04-27T11:47:22;95927.00;;;16.02;63.38
71457;BME280;59263;48.160;11.752;2023-04-27T11:50:02;95922.63;;;16.17;65.88
71457;BME280;59263;48.160;11.752;2023-04-27T11:52:37;95960.31;;;16.38;64.58
71457;BME280;59263;48.160;11.752;2023-04-27T11:55:10;95921.16;;;16.15;60.31
71457;BME280;59263;48.160;11.752;2023-04-27T11:57:43;95952.69;;;16.13;63.88
71457;BME280;59263;48.160;11.752;2023-04-27T12:00:29;95946.41;;;16.23;64.13
71457;BME280;59263;48.160;11.752;2023-04-27T12:05:38;95923.53;;;16.02;62.00
71457;BME280;59263;48.160;11.752;2023-04-27T12:08:13;95951.16;;;15.96;60.18
71457;BME280;59263;48.160;11.752;2023-04-27T12:10:39;95950.81;;;15.99;60.71
71457;BME280;59263;48.160;11.752;2023-04-27T12:13:05;95932.16;;;15.87;57.84
71457;BME280;59263;48.160;11.752;2023-04-27T12:15:30;95925.22;;;15.63;64.87
71457;BME280;59263;48.160;11.752;2023-04-27T12:18:00;95927.47;;;15.75;62.18
71457;BME280;59263;48.160;11.752;2023-04-27T12:20:26;95959.75;;;16.05;68.10
71457;BME280;59263;48.160;11.752;2023-04-27T12:22:53;95943.63;;;16.01;64.28
71457;BME280;59263;48.160;11.752;2023-04-27T12:25:22;95931.69;;;15.84;68.42
71457;BME280;59263;48.160;11.752;2023-04-27T12:27:50;95975.50;;;15.88;62.08
71457;BME280;59263;48.160;11.752;2023-04-27T12:30:19;95919.53;;;15.60;67.94
71457;BME280;59263;48.160;11.752;2023-04-27T12:32:48;95913.63;;;15.43;66.09
71457;BME280;59263;48.160;11.752;2023-04-27T12:35:14;95953.78;;;15.57;62.70
71457;BME280;59263;48.160;11.752;2023-04-27T12:37:39;95980.34;;;15.68;68.35
71457;BME280;59263;48.160;11.752;2023-04-27T12:40:06;95954.31;;;15.52;66.25
71457;BME280;59263;48.160;11.752;2023-04-27T12:42:33;95973.22;;;15.54;72.63
71457;BME280;59263;48.160;11.752;2023-04-27T12:44:58;95947.47;;;15.51;73.18
71457;BME280;59263;48.160;11.752;2023-04-27T12:47:26;95950.88;;;15.52;82.00
71457;BME280;59263;48.160;11.752;2023-04-27T12:49:51;95919.16;;;15.40;70.83
71457;BME280;59263;48.160;11.752;2023-04-27T12:52:20;95936.34;;;15.57;68.94
71457;BME280;59263;48.160;11.752;2023-04-27T12:54:46;95908.63;;;15.56;65.26
71457;BME280;59263;48.160;11.752;2023-04-27T12:57:11;95941.28;;;15.83;60.37
71457;BME280;59263;48.160;11.752;2023-04-27T12:59:40;95897.59;;;15.46;62.00
71457;BME280;59263;48.160;11.752;2023-04-27T13:02:08;95932.06;;;15.64;69.34
71457;BME280;59263;48.160;11.752;2023-04-27T13:04:37;95911.91;;;15.58;69.46
71457;BME280;59263;48.160;11.752;2023-04-27T13:07:02;95951.38;;;15.86;66.91
71457;BME280;59263;48.160;11.752;2023-04-27T13:09:28;95937.56;;;15.78;68.91
71457;BME280;59263;48.160;11.752;2023-04-27T13:11:53;95917.44;;;15.55;64.15
71457;BME280;59263;48.160;11.752;2023-04-27T13:14:20;95897.88;;;15.59;68.74
71457;BME280;59263;48.160;11.752;2023-04-27T13:16:46;95923.19;;;15.82;63.30
71457;BME280;59263;48.160;11.752;2023-04-27T13:19:11;95946.41;;;16.23;60.88
71457;BME280;59263;48.160;11.752;2023-04-27T13:21:37;95935.88;;;16.31;61.91
71457;BME280;59263;48.160;11.752;2023-04-27T13:24:05;95935.03;;;16.15;59.41
71457;BME280;59263;48.160;11.752;2023-04-27T13:26:30;95897.56;;;15.85;64.37
71457;BME280;59263;48.160;11.752;2023-04-27T13:28:56;95919.16;;;16.02;62.89
71457;BME280;59263;48.160;11.752;2023-04-27T13:31:22;95925.47;;;16.08;64.92
71457;BME280;59263;48.160;11.752;2023-04-27T13:33:47;95894.56;;;15.73;65.61
71457;BME280;59263;48.160;11.752;2023-04-27T13:36:12;95893.31;;;15.53;69.42
71457;BME280;59263;48.160;11.752;2023-04-27T13:38:41;95941.19;;;15.77;77.23
71457;BME280;59263;48.160;11.752;2023-04-27T13:41:07;95919.03;;;15.72;70.07
71457;BME280;59263;48.160;11.752;2023-04-27T13:43:32;95898.91;;;15.50;74.55
71457;BME280;59263;48.160;11.752;2023-04-27T13:46:04;95918.66;;;15.76;67.25
71457;BME280;59263;48.160;11.752;2023-04-27T13:48:29;95884.06;;;15.51;67.78
71457;BME280;59263;48.160;11.752;2023-04-27T13:50:58;95941.50;;;15.73;73.58